Time;durP1;ratioP1;P1;durP2;ratioP2;P2;SDS_P1;SDS_P2;PMS_P1;PMS_P2;Temp;Humidity;BMP_temperature;BMP_pressure;BME280_temperature;BME280_humidity;BME280_pressure;Samples;Min_cycle;Max_cycle;Signal;HPM_P1;HPM_P2
2021/11/24 00:00:39;;;;;;;10.77;8.97;;;3.00;96.30;;;;;;5034758;28;20176;-83
2021/11/24 00:03:05;;;;;;;14.20;8.57;;;3.00;96.30;;;;;;5034224;28;20176;-83
2021/11/24 00:05:31;;;;;;;12.50;9.20;;;3.00;96.30;;;;;;5034523;28;20179;-83
2021/11/24 00:07:58;;;;;;;10.90;8.83;;;3.00;96.30;;;;;;5033339;28;20180;-83
2021/11/24 00:10:29;;;;;;;13.03;10.27;;;3.00;96.30;;;;;;5033268;28;20426;-84
2021/11/24 00:12:54;;;;;;;10.67;7.93;;;3.00;96.30;;;;;;5032687;28;20431;-83
2021/11/24 00:15:20;;;;;;;11.13;8.70;;;3.00;96.30;;;;;;5033148;28;20613;-84
2021/11/24 00:17:45;;;;;;;9.47;7.57;;;3.00;96.30;;;;;;5033027;28;20554;-83
2021/11/24 00:20:11;;;;;;;9.13;7.50;;;3.10;96.30;;;;;;5034536;28;20176;-83
2021/11/24 00:22:37;;;;;;;10.20;7.77;;;3.00;96.30;;;;;;5032123;28;20266;-84
2021/11/24 00:25:03;;;;;;;8.37;7.03;;;3.00;96.30;;;;;;5034320;28;20267;-83
2021/11/24 00:27:29;;;;;;;7.90;6.60;;;3.10;96.30;;;;;;5032146;28;20899;-83
2021/11/24 00:29:55;;;;;;;6.23;5.43;;;3.10;96.30;;;;;;5013222;28;20439;-83
2021/11/24 00:32:21;;;;;;;7.77;6.77;;;3.10;96.30;;;;;;5012386;28;20247;-83
2021/11/24 00:34:47;;;;;;;10.03;8.07;;;3.10;96.30;;;;;;5014363;28;20501;-83
2021/11/24 00:37:12;;;;;;;11.70;9.00;;;3.10;96.30;;;;;;5014016;28;20821;-84
2021/11/24 00:39:38;;;;;;;15.20;9.37;;;3.20;96.30;;;;;;5012852;28;20216;-83
2021/11/24 00:42:04;;;;;;;12.57;10.57;;;3.20;96.30;;;;;;5013493;28;20201;-83
2021/11/24 00:44:29;;;;;;;12.43;9.27;;;3.20;96.30;;;;;;5013191;28;20546;-83
2021/11/24 00:46:55;;;;;;;13.80;9.60;;;3.10;96.30;;;;;;5012879;28;20416;-83
2021/11/24 00:49:20;;;;;;;11.23;9.30;;;3.10;96.30;;;;;;5012662;28;20562;-83
2021/11/24 00:51:46;;;;;;;12.27;10.40;;;3.00;96.30;;;;;;5012076;28;20204;-84
2021/11/24 00:54:11;;;;;;;11.83;8.80;;;3.00;96.30;;;;;;5013885;28;20204;-84
2021/11/24 00:56:37;;;;;;;13.30;10.30;;;3.00;96.30;;;;;;5013799;28;20188;-84
2021/11/24 00:59:05;;;;;;;8.83;6.87;;;3.00;96.30;;;;;;5013650;28;20187;-83
2021/11/24 05:01:31;;;;;;;12.20;9.23;;;2.70;96.30;;;;;;5513716;23;20604;-84
2021/11/24 05:03:57;;;;;;;13.23;10.57;;;2.70;96.30;;;;;;4964318;28;20965;-84
2021/11/24 05:06:23;;;;;;;12.63;9.53;;;2.70;96.30;;;;;;4938039;29;20186;-84
2021/11/24 05:08:49;;;;;;;12.50;9.43;;;2.70;96.30;;;;;;4938312;29;20185;-83
2021/11/24 05:11:18;;;;;;;10.87;9.73;;;2.80;96.30;;;;;;4946752;29;20202;-84
2021/11/24 05:14:21;;;;;;;14.70;9.70;;;2.80;96.30;;;;;;4919068;29;20211;-84
2021/11/24 05:16:41;;;;;;;11.13;9.60;;;2.80;96.30;;;;;;4934320;29;20451;-83
2021/11/24 05:19:10;;;;;;;14.63;8.23;;;2.80;96.30;;;;;;4921250;29;20491;-83
2021/11/24 05:21:37;;;;;;;11.10;9.40;;;2.70;96.30;;;;;;4936902;29;20527;-83
2021/11/24 05:24:04;;;;;;;12.40;9.90;;;2.80;96.30;;;;;;4935360;29;20773;-82
2021/11/24 05:26:31;;;;;;;10.93;8.60;;;2.80;96.30;;;;;;4920444;29;20423;-84
2021/11/24 05:28:57;;;;;;;11.17;9.20;;;2.80;96.30;;;;;;4961473;28;20413;-83
2021/11/24 05:31:23;;;;;;;12.83;10.53;;;2.80;96.30;;;;;;4974628;28;21067;-83
2021/11/24 05:33:50;;;;;;;10.50;9.07;;;2.80;96.30;;;;;;4958992;28;20457;-82
2021/11/24 05:36:16;;;;;;;10.57;9.40;;;2.80;96.30;;;;;;4976380;28;20551;-82
2021/11/24 05:38:42;;;;;;;11.40;9.73;;;2.80;96.30;;;;;;4976670;28;20842;-83
2021/11/24 05:41:08;;;;;;;10.87;9.33;;;2.80;96.30;;;;;;4974847;28;20445;-83
2021/11/24 05:43:34;;;;;;;10.10;9.00;;;2.70;96.30;;;;;;4958510;28;20182;-82
2021/11/24 05:48:51;;;;;;;12.37;9.23;;;2.70;96.30;;;;;;4946010;28;20413;-83
2021/11/24 05:51:17;;;;;;;13.30;10.40;;;2.80;96.30;;;;;;4957495;28;20803;-82
2021/11/24 05:53:43;;;;;;;36.20;21.10;;;2.80;96.30;;;;;;4958308;28;20646;-83
2021/11/24 05:56:08;;;;;;;26.47;18.40;;;2.70;96.30;;;;;;4942420;29;20745;-83
2021/11/24 05:58:34;;;;;;;15.50;10.30;;;2.80;96.30;;;;;;4939424;29;20183;-82
2021/11/24 06:00:59;;;;;;;12.13;9.17;;;2.80;96.30;;;;;;4938962;29;20224;-83
2021/11/24 06:03:25;;;;;;;17.07;12.03;;;2.80;96.30;;;;;;4939195;29;20190;-82
2021/11/24 06:05:50;;;;;;;10.83;8.97;;;2.80;96.30;;;;;;4938643;29;20183;-81
2021/11/24 06:08:17;;;;;;;10.17;8.97;;;2.80;96.30;;;;;;4922776;29;20183;-81
2021/11/24 06:10:43;;;;;;;9.80;8.00;;;2.80;96.30;;;;;;4919789;29;20195;-81
2021/11/24 06:13:09;;;;;;;12.17;8.60;;;2.80;96.30;;;;;;4919590;29;20479;-82
2021/11/24 06:15:34;;;;;;;14.40;10.17;;;2.80;96.30;;;;;;4938213;29;20459;-82
2021/11/24 06:18:00;;;;;;;13.03;10.00;;;2.80;96.30;;;;;;4936847;29;20183;-80
2021/11/24 06:20:27;;;;;;;10.30;8.30;;;2.80;96.30;;;;;;4936663;29;20542;-82
2021/11/24 06:22:52;;;;;;;10.47;8.83;;;2.80;96.30;;;;;;4918436;29;20172;-80
2021/11/24 06:25:18;;;;;;;10.83;8.17;;;2.90;96.30;;;;;;4936235;29;20470;-80
2021/11/24 06:27:44;;;;;;;14.57;8.30;;;2.80;96.30;;;;;;4936110;29;20181;-80
2021/11/24 06:30:17;;;;;;;27.77;17.43;;;2.80;96.30;;;;;;4936365;29;20187;-80
2021/11/24 06:32:43;;;;;;;21.80;15.17;;;2.80;96.30;;;;;;4918640;29;20946;-79
2021/11/24 06:35:09;;;;;;;11.77;8.57;;;2.90;96.30;;;;;;4918623;29;20525;-80
2021/11/24 06:37:37;;;;;;;12.37;9.60;;;2.90;96.30;;;;;;4936561;29;20417;-81
2021/11/24 06:40:03;;;;;;;18.53;13.80;;;2.90;96.30;;;;;;4936615;29;20474;-80
2021/11/24 06:42:29;;;;;;;14.40;10.93;;;2.90;96.30;;;;;;4938538;29;20438;-79
2021/11/24 06:44:54;;;;;;;13.97;11.13;;;2.80;96.30;;;;;;4939671;29;20419;-81
2021/11/24 06:47:20;;;;;;;12.20;9.27;;;2.80;96.30;;;;;;4956762;29;20197;-79
2021/11/24 06:49:46;;;;;;;14.70;10.10;;;2.80;96.30;;;;;;4952230;29;20513;-80
2021/11/24 06:52:12;;;;;;;12.33;9.70;;;2.80;96.30;;;;;;4952577;28;20253;-80
2021/11/24 06:54:37;;;;;;;10.33;8.40;;;2.80;96.30;;;;;;4952284;28;20235;-80
2021/11/24 06:57:03;;;;;;;9.90;7.90;;;2.80;96.30;;;;;;4919502;29;20443;-80
2021/11/24 06:59:29;;;;;;;10.80;9.00;;;2.80;96.30;;;;;;4919540;29;20179;-82
2021/11/24 07:01:54;;;;;;;9.13;7.73;;;2.80;96.30;;;;;;4918304;29;20215;-82
2021/11/24 07:04:20;;;;;;;9.83;7.87;;;2.80;96.30;;;;;;4920852;29;20254;-80
2021/11/24 07:06:45;;;;;;;10.40;8.10;;;2.80;96.30;;;;;;4938105;29;20651;-80
2021/11/24 07:09:12;;;;;;;18.90;13.33;;;2.80;96.30;;;;;;4937589;29;20190;-81
2021/11/24 07:11:39;;;;;;;15.80;9.97;;;2.90;96.30;;;;;;4937440;29;20633;-80
2021/11/24 07:14:05;;;;;;;13.40;10.47;;;2.90;96.30;;;;;;4938411;29;20423;-80
2021/11/24 07:16:30;;;;;;;9.57;7.60;;;2.90;96.30;;;;;;4955825;29;20411;-80
2021/11/24 07:18:55;;;;;;;8.37;5.27;;;2.90;96.30;;;;;;4938015;29;20171;-81
2021/11/24 07:21:21;;;;;;;6.03;5.30;;;3.00;96.30;;;;;;4954393;29;20249;-81
2021/11/24 07:23:47;;;;;;;10.87;8.20;;;3.10;96.30;;;;;;4938025;29;20171;-80
2021/11/24 07:26:13;;;;;;;8.60;7.50;;;3.10;96.30;;;;;;4937694;29;20655;-80
2021/11/24 07:28:38;;;;;;;9.73;7.90;;;3.20;96.30;;;;;;4947139;28;20434;-80
2021/11/24 07:31:04;;;;;;;14.40;8.77;;;3.10;96.30;;;;;;4973393;28;20337;-81
2021/11/24 07:33:29;;;;;;;11.47;9.50;;;3.10;96.30;;;;;;4957116;28;20182;-81
2021/11/24 07:35:55;;;;;;;15.00;10.50;;;3.20;96.30;;;;;;4945020;29;20678;-80
2021/11/24 07:38:20;;;;;;;13.00;10.13;;;3.20;96.30;;;;;;4954091;29;20254;-80
2021/11/24 07:40:46;;;;;;;15.30;11.57;;;3.20;96.30;;;;;;4953730;28;20195;-79
2021/11/24 07:43:12;;;;;;;12.80;10.23;;;3.20;96.30;;;;;;4936248;29;20539;-81
2021/11/24 07:45:37;;;;;;;10.53;8.13;;;3.30;96.30;;;;;;4937535;29;20231;-80
2021/11/24 07:48:03;;;;;;;11.97;8.20;;;3.30;96.30;;;;;;4939454;29;20175;-79
2021/11/24 07:50:28;;;;;;;10.87;8.00;;;3.30;96.30;;;;;;4956373;28;20223;-79
2021/11/24 07:52:55;;;;;;;10.90;8.50;;;3.30;96.30;;;;;;4956388;29;20183;-80
2021/11/24 07:55:20;;;;;;;10.53;8.47;;;3.20;96.30;;;;;;4937415;29;20194;-80
2021/11/24 07:57:47;;;;;;;15.00;9.20;;;3.20;96.30;;;;;;4920840;29;20459;-81
2021/11/24 08:00:14;;;;;;;11.60;8.27;;;3.30;96.30;;;;;;4937779;29;20514;-79
2021/11/24 08:02:40;;;;;;;10.70;8.90;;;3.30;96.30;;;;;;4921151;29;20485;-81
2021/11/24 08:05:08;;;;;;;9.47;6.07;;;3.30;96.30;;;;;;4945986;29;20425;-80
2021/11/24 08:07:36;;;;;;;6.03;5.43;;;3.30;96.30;;;;;;4946853;28;20412;-81
2021/11/24 08:10:03;;;;;;;5.27;3.50;;;3.50;96.30;;;;;;4947087;29;20490;-81
2021/11/24 08:12:29;;;;;;;10.07;5.77;;;3.60;96.30;;;;;;4956764;29;20438;-81
2021/11/24 08:14:54;;;;;;;7.23;4.47;;;3.70;96.30;;;;;;4939586;29;20477;-83
2021/11/24 08:17:20;;;;;;;6.60;5.30;;;3.80;96.30;;;;;;4939665;29;20266;-81
2021/11/24 08:19:45;;;;;;;9.33;5.60;;;3.80;96.30;;;;;;4956633;29;20521;-80
2021/11/24 08:22:11;;;;;;;6.90;4.17;;;3.90;96.30;;;;;;4955854;29;20195;-79
2021/11/24 08:24:36;;;;;;;6.60;5.00;;;3.90;96.30;;;;;;4938922;29;20576;-79
2021/11/24 08:27:02;;;;;;;5.60;4.23;;;4.10;96.30;;;;;;4939124;29;20200;-79
2021/11/24 08:29:29;;;;;;;7.17;5.07;;;4.10;96.30;;;;;;4956141;29;20179;-79
2021/11/24 08:31:55;;;;;;;6.07;4.73;;;4.20;96.30;;;;;;4938404;29;21025;-79
2021/11/24 08:34:20;;;;;;;8.00;6.10;;;4.10;96.30;;;;;;4956105;29;20454;-79
2021/11/24 08:36:47;;;;;;;6.63;5.37;;;4.20;96.30;;;;;;4956076;29;20426;-78
2021/11/24 08:39:12;;;;;;;7.43;6.47;;;4.30;96.30;;;;;;4938879;29;20179;-79
2021/11/24 08:41:38;;;;;;;17.60;7.80;;;4.50;96.30;;;;;;4938329;29;20853;-79
2021/11/24 08:44:04;;;;;;;8.23;7.40;;;4.40;96.30;;;;;;4938900;29;20182;-78
2021/11/24 08:46:30;;;;;;;9.90;6.87;;;4.30;96.30;;;;;;4956028;29;20201;-78
2021/11/24 08:48:55;;;;;;;9.63;6.80;;;4.40;96.30;;;;;;4938846;29;21197;-79
2021/11/24 08:51:21;;;;;;;13.93;7.90;;;4.20;96.30;;;;;;4946728;29;20278;-79
2021/11/24 08:53:46;;;;;;;11.57;8.17;;;4.20;96.30;;;;;;4936637;29;20522;-78
2021/11/24 08:56:12;;;;;;;7.97;7.17;;;4.30;96.30;;;;;;4954668;29;20252;-80
2021/11/24 08:58:39;;;;;;;7.03;6.00;;;4.30;96.30;;;;;;4938392;29;20167;-80
2021/11/24 09:01:05;;;;;;;9.43;7.60;;;4.30;96.30;;;;;;4936446;29;20293;-80
2021/11/24 09:03:31;;;;;;;9.50;7.70;;;4.30;96.30;;;;;;4955411;28;20501;-80
2021/11/24 09:05:56;;;;;;;10.07;7.63;;;4.20;96.30;;;;;;4937908;28;20213;-79
2021/11/24 09:08:22;;;;;;;8.23;7.17;;;4.30;96.30;;;;;;4938134;29;20179;-81
2021/11/24 09:10:47;;;;;;;8.43;7.50;;;4.40;96.30;;;;;;4938008;28;20203;-79
2021/11/24 09:13:13;;;;;;;9.30;7.20;;;4.40;96.30;;;;;;4954614;29;20182;-81
2021/11/24 09:15:40;;;;;;;8.47;7.40;;;4.40;96.30;;;;;;4938041;29;20198;-80
2021/11/24 09:18:06;;;;;;;10.20;7.57;;;4.50;96.30;;;;;;4937814;29;20189;-80
2021/11/24 09:20:34;;;;;;;8.90;6.57;;;4.60;96.30;;;;;;4937678;29;20505;-80
2021/11/24 09:23:03;;;;;;;10.77;6.83;;;4.60;96.30;;;;;;4937294;29;20167;-80
2021/11/24 09:25:37;;;;;;;10.07;8.07;;;4.60;96.30;;;;;;4937466;29;20426;-80
2021/11/24 09:28:09;;;;;;;11.10;7.40;;;4.70;96.30;;;;;;4942493;28;20833;-80
2021/11/24 09:30:35;;;;;;;8.50;7.70;;;4.70;96.30;;;;;;4973951;28;20402;-80
2021/11/24 09:33:01;;;;;;;8.93;7.73;;;4.70;96.30;;;;;;4973523;28;20480;-80
2021/11/24 09:35:27;;;;;;;11.27;8.13;;;4.70;96.30;;;;;;4974065;28;20813;-80
2021/11/24 09:37:52;;;;;;;11.80;9.73;;;4.80;96.30;;;;;;4974100;28;20902;-79
2021/11/24 09:40:18;;;;;;;10.67;8.27;;;4.80;96.30;;;;;;4956611;28;20225;-80
2021/11/24 09:42:46;;;;;;;10.87;7.73;;;4.90;96.30;;;;;;4973238;28;20170;-83
2021/11/24 09:45:15;;;;;;;11.30;7.90;;;5.00;96.30;;;;;;4973778;28;20753;-80
2021/11/24 09:47:45;;;;;;;8.03;7.23;;;5.00;96.30;;;;;;4956461;28;20521;-80
2021/11/24 09:50:10;;;;;;;13.00;7.70;;;5.00;96.30;;;;;;4956274;28;20429;-83
2021/11/24 09:52:36;;;;;;;9.90;8.10;;;4.90;96.30;;;;;;4973166;28;20438;-81
2021/11/24 09:55:04;;;;;;;9.80;7.77;;;5.00;96.30;;;;;;4973583;28;20252;-81
2021/11/24 09:57:30;;;;;;;10.87;7.50;;;5.10;96.30;;;;;;4956298;28;20417;-81
2021/11/24 09:59:56;;;;;;;12.60;7.30;;;5.00;96.30;;;;;;4973243;28;20414;-79
2021/11/24 10:02:22;;;;;;;10.50;8.00;;;5.10;96.30;;;;;;4955584;28;20445;-79
2021/11/24 10:04:49;;;;;;;8.77;7.87;;;5.10;96.30;;;;;;4973291;28;20891;-80
2021/11/24 10:07:18;;;;;;;14.63;8.03;;;5.10;96.30;;;;;;4956132;28;20827;-79
2021/11/24 10:09:44;;;;;;;7.93;7.13;;;5.20;96.30;;;;;;4973028;28;20992;-80
2021/11/24 10:12:10;;;;;;;7.97;6.90;;;5.00;96.30;;;;;;4955476;28;20525;-80
2021/11/24 10:14:37;;;;;;;12.57;7.50;;;5.00;96.30;;;;;;4955795;28;20449;-80
2021/11/24 10:17:05;;;;;;;9.80;7.40;;;5.20;96.30;;;;;;4972929;28;20493;-83
2021/11/24 10:19:31;;;;;;;8.17;7.33;;;5.40;96.30;;;;;;4973524;28;21099;-79
2021/11/24 10:22:10;;;;;;;7.87;6.97;;;5.40;96.30;;;;;;4955082;28;20973;-79
2021/11/24 10:24:41;;;;;;;8.20;7.23;;;5.40;96.30;;;;;;4973336;28;20420;-80
2021/11/24 10:27:13;;;;;;;8.93;7.97;;;5.30;96.30;;;;;;4973234;28;20453;-79
2021/11/24 10:29:40;;;;;;;9.73;6.87;;;5.40;96.30;;;;;;4954152;28;20411;-79
2021/11/24 10:32:09;;;;;;;7.77;7.00;;;5.40;96.30;;;;;;4953431;28;20426;-80
2021/11/24 10:34:41;;;;;;;7.77;6.40;;;5.50;96.30;;;;;;4936518;29;20472;-79
2021/11/24 10:37:11;;;;;;;7.90;6.13;;;5.60;96.30;;;;;;4953946;29;20768;-79
2021/11/24 10:39:51;;;;;;;7.83;7.03;;;5.70;96.30;;;;;;4953355;29;20403;-80
2021/11/24 10:42:38;;;;;;;8.17;7.10;;;5.80;96.30;;;;;;4953217;28;20454;-80
2021/11/24 10:45:14;;;;;;;7.53;6.70;;;5.90;96.30;;;;;;4936207;29;20418;-78
2021/11/24 10:47:49;;;;;;;8.10;6.83;;;5.90;96.30;;;;;;4936698;29;20945;-80
2021/11/24 10:50:20;;;;;;;6.43;5.83;;;5.80;96.30;;;;;;4953505;29;20890;-78
2021/11/24 10:52:46;;;;;;;6.70;5.97;;;5.50;96.30;;;;;;4952580;29;20425;-81
2021/11/24 10:55:17;;;;;;;10.80;6.27;;;5.40;96.30;;;;;;4953387;29;20548;-79
2021/11/24 10:57:59;;;;;;;6.60;5.80;;;5.50;96.30;;;;;;4936326;29;20421;-78
2021/11/24 11:00:33;;;;;;;7.83;5.97;;;5.50;96.30;;;;;;4937040;28;20478;-78
2021/11/24 11:02:58;;;;;;;8.67;6.27;;;5.50;96.30;;;;;;4953918;28;20421;-78
2021/11/24 11:05:25;;;;;;;8.90;6.23;;;5.60;96.30;;;;;;4955371;28;20424;-77
2021/11/24 11:07:50;;;;;;;7.20;6.30;;;5.60;96.30;;;;;;4972718;28;20591;-78
2021/11/24 11:10:34;;;;;;;8.17;6.90;;;5.60;96.30;;;;;;4955296;28;20424;-79
2021/11/24 11:13:04;;;;;;;7.53;6.63;;;5.60;96.30;;;;;;4954097;28;20171;-80
2021/11/24 11:15:38;;;;;;;7.57;6.77;;;5.60;96.30;;;;;;4955631;29;20988;-79
2021/11/24 11:18:35;;;;;;;9.73;6.60;;;5.60;96.30;;;;;;4953744;29;20402;-79
2021/11/24 11:21:10;;;;;;;7.40;6.73;;;5.60;96.30;;;;;;4920005;29;20444;-79
2021/11/24 11:23:38;;;;;;;7.30;6.00;;;5.60;96.30;;;;;;4938021;29;20888;-77
2021/11/24 11:26:06;;;;;;;5.70;5.20;;;5.70;96.30;;;;;;4921101;29;20927;-79
2021/11/24 11:28:38;;;;;;;6.77;5.47;;;5.80;96.30;;;;;;4938508;29;20414;-78
2021/11/24 11:31:08;;;;;;;8.03;6.47;;;5.80;96.30;;;;;;4945890;29;20439;-77
2021/11/24 11:33:37;;;;;;;6.50;5.90;;;5.70;96.30;;;;;;4951059;29;20414;-77
2021/11/24 11:36:08;;;;;;;6.60;5.27;;;5.80;96.30;;;;;;4949060;29;20466;-77
2021/11/24 11:38:35;;;;;;;7.07;6.37;;;5.40;96.30;;;;;;4955826;29;20406;-77
2021/11/24 11:41:03;;;;;;;6.63;5.33;;;5.40;96.30;;;;;;4956462;29;20442;-77
2021/11/24 11:43:30;;;;;;;6.17;5.47;;;5.70;96.30;;;;;;4940249;29;20509;-77
2021/11/24 11:45:56;;;;;;;6.00;5.40;;;5.80;96.30;;;;;;4939455;29;20426;-77
2021/11/24 11:48:29;;;;;;;5.27;4.77;;;5.90;96.30;;;;;;4939424;29;20422;-78
2021/11/24 11:51:03;;;;;;;6.60;5.20;;;5.90;96.30;;;;;;4956503;29;20438;-78
2021/11/24 11:53:35;;;;;;;7.90;5.10;;;5.90;96.30;;;;;;4956712;29;20399;-77
2021/11/24 11:56:13;;;;;;;6.13;5.43;;;5.90;96.30;;;;;;4939234;29;20450;-77
2021/11/24 11:58:49;;;;;;;6.43;5.83;;;5.80;96.30;;;;;;4956897;29;20461;-78
2021/11/24 12:09:06;;;;;;;8.40;5.80;;;5.70;96.30;;;;;;5288205;23;20531;-78
2021/11/24 12:12:10;;;;;;;14.73;5.27;;;5.50;96.30;;;;;;5013206;28;20804;-79
2021/11/24 12:14:56;;;;;;;5.93;5.33;;;5.50;96.30;;;;;;5015514;28;20589;-79
2021/11/24 12:17:31;;;;;;;1.30;1.20;;;5.50;96.30;;;;;;5015382;28;20408;-79
2021/11/24 12:20:12;;;;;;;2.03;1.03;;;5.70;96.30;;;;;;5013959;28;20426;-79
2021/11/24 12:22:54;;;;;;;2.30;1.00;;;5.70;96.30;;;;;;5014435;28;20419;-79
2021/11/24 12:30:47;;;;;;;0.90;0.70;;;5.70;96.30;;;;;;5020716;28;20185;-79
2021/11/24 12:33:25;;;;;;;0.90;0.70;;;5.70;96.30;;;;;;5011647;28;21444;-79
2021/11/24 12:35:59;;;;;;;2.20;1.10;;;5.70;96.30;;;;;;5014586;28;20439;-78
2021/11/24 12:38:29;;;;;;;0.90;0.70;;;5.50;96.30;;;;;;5013272;28;20409;-79
2021/11/24 12:41:02;;;;;;;1.30;0.90;;;5.40;96.30;;;;;;5014361;28;20947;-79
2021/11/24 12:43:30;;;;;;;1.17;0.80;;;5.30;96.30;;;;;;5014502;28;20404;-78
2021/11/24 12:46:08;;;;;;;1.63;1.00;;;5.20;96.30;;;;;;5014181;28;20424;-79
2021/11/24 12:48:46;;;;;;;1.50;1.13;;;5.10;96.30;;;;;;5014492;28;20419;-79
2021/11/24 12:51:34;;;;;;;2.77;1.57;;;5.10;96.30;;;;;;5012740;28;21024;-78
2021/11/24 12:54:09;;;;;;;3.03;2.03;;;5.10;96.30;;;;;;5014225;28;20931;-79
2021/11/24 12:56:40;;;;;;;1.90;1.20;;;5.10;96.30;;;;;;5012920;28;20419;-79
2021/11/24 12:59:09;;;;;;;1.57;1.00;;;5.00;96.30;;;;;;5015412;28;20487;-79
2021/11/24 13:01:38;;;;;;;1.00;0.70;;;5.10;96.30;;;;;;5012241;28;20841;-78
2021/11/24 13:04:16;;;;;;;1.23;0.67;;;5.00;96.30;;;;;;5012869;28;20408;-78
2021/11/24 13:06:46;;;;;;;8.87;3.90;;;5.00;96.30;;;;;;5014193;28;20475;-79
2021/11/24 13:09:17;;;;;;;16.00;7.10;;;4.90;96.30;;;;;;4992430;28;20492;-79
2021/11/24 13:11:52;;;;;;;42.70;18.30;;;5.00;96.30;;;;;;4992183;28;20452;-78
2021/11/24 13:14:21;;;;;;;21.60;10.50;;;5.00;96.30;;;;;;4992918;28;20424;-79
2021/11/24 13:17:00;;;;;;;3.43;1.60;;;4.80;96.30;;;;;;4993827;28;20409;-79
2021/11/24 13:19:37;;;;;;;1.20;0.90;;;4.70;96.30;;;;;;4994425;28;20396;-79
2021/11/24 13:22:05;;;;;;;1.30;0.90;;;4.80;96.30;;;;;;4993163;28;20443;-79
2021/11/24 13:24:30;;;;;;;5.00;2.17;;;4.80;96.30;;;;;;4998223;28;20429;-79
2021/11/24 13:26:56;;;;;;;4.23;3.27;;;4.80;96.30;;;;;;5010627;28;20472;-79
2021/11/24 13:29:24;;;;;;;2.43;2.13;;;4.70;96.30;;;;;;5013174;28;20208;-79
2021/11/24 13:31:50;;;;;;;3.40;2.80;;;4.80;96.30;;;;;;5008111;28;20221;-78
2021/11/24 13:34:23;;;;;;;1.43;1.27;;;4.80;96.30;;;;;;4994304;28;20425;-77
2021/11/24 13:36:49;;;;;;;1.20;1.10;;;4.70;96.30;;;;;;4993052;28;20500;-78
2021/11/24 13:39:14;;;;;;;1.10;0.97;;;4.70;96.30;;;;;;4992963;28;20851;-78
2021/11/24 13:41:40;;;;;;;1.10;1.00;;;4.70;96.30;;;;;;4991642;28;20197;-78
2021/11/24 13:44:07;;;;;;;1.10;0.90;;;4.80;96.30;;;;;;4991975;28;20212;-77
2021/11/24 13:46:41;;;;;;;0.90;0.60;;;4.70;96.30;;;;;;4992455;28;20184;-77
2021/11/24 13:49:09;;;;;;;0.90;0.60;;;4.80;96.30;;;;;;4992937;28;20893;-77
2021/11/24 13:51:37;;;;;;;1.07;0.80;;;4.80;96.30;;;;;;5001047;28;20441;-77
2021/11/24 13:54:12;;;;;;;1.00;0.80;;;4.80;96.30;;;;;;4992817;28;20917;-77
2021/11/24 13:57:00;;;;;;;1.00;0.73;;;4.70;96.30;;;;;;5028358;28;20423;-76
2021/11/24 13:59:32;;;;;;;1.00;0.80;;;4.70;96.30;;;;;;5011730;28;20479;-76
2021/11/24 14:02:03;;;;;;;1.67;1.20;;;4.70;96.30;;;;;;4991688;28;20980;-77
2021/11/24 14:04:30;;;;;;;1.30;0.90;;;4.50;96.30;;;;;;4992458;28;20397;-77
2021/11/24 14:07:04;;;;;;;1.27;1.10;;;4.40;96.30;;;;;;4996349;28;20491;-78
2021/11/24 14:09:32;;;;;;;1.60;0.90;;;4.30;96.30;;;;;;4998316;28;20474;-78
2021/11/24 14:12:02;;;;;;;1.00;0.63;;;4.40;96.30;;;;;;4995902;28;20832;-78
2021/11/24 14:14:46;;;;;;;1.63;1.10;;;4.40;96.30;;;;;;4996448;28;20495;-77
2021/11/24 14:17:22;;;;;;;1.80;1.47;;;4.50;96.30;;;;;;5010792;28;20412;-77
2021/11/24 14:19:47;;;;;;;2.17;1.10;;;4.50;96.30;;;;;;4993644;28;20496;-79
2021/11/24 14:22:14;;;;;;;1.10;0.80;;;4.40;96.30;;;;;;4993226;28;20548;-78
2021/11/24 14:24:40;;;;;;;1.33;1.17;;;4.40;96.30;;;;;;4993549;28;20192;-78
2021/11/24 14:27:06;;;;;;;2.40;1.13;;;4.30;96.30;;;;;;4993253;28;20415;-77
2021/11/24 14:29:35;;;;;;;2.20;1.40;;;4.20;96.30;;;;;;5001629;28;20507;-76
2021/11/24 14:32:02;;;;;;;1.73;1.63;;;4.20;96.30;;;;;;5006120;28;20454;-78
2021/11/24 14:34:28;;;;;;;2.67;1.83;;;4.20;96.30;;;;;;5011373;28;20419;-78
2021/11/24 14:36:55;;;;;;;1.90;1.70;;;4.20;96.30;;;;;;5011564;28;20471;-77
2021/11/24 14:39:23;;;;;;;2.83;2.43;;;4.10;96.30;;;;;;5011928;28;20203;-79
2021/11/24 14:41:49;;;;;;;4.90;1.90;;;4.10;96.30;;;;;;5011741;28;20840;-78
2021/11/24 14:44:16;;;;;;;2.60;2.40;;;4.10;96.30;;;;;;5012180;28;20914;-78
2021/11/24 14:46:42;;;;;;;3.20;2.40;;;4.00;96.30;;;;;;5012071;28;20408;-78
2021/11/24 14:49:10;;;;;;;3.03;2.73;;;4.00;96.30;;;;;;5011547;28;20992;-79
2021/11/24 14:51:35;;;;;;;3.17;2.87;;;3.90;96.30;;;;;;5012266;28;20209;-78
2021/11/24 14:54:01;;;;;;;3.70;3.40;;;3.90;96.30;;;;;;5011776;28;20910;-79
2021/11/24 14:56:27;;;;;;;3.33;3.03;;;3.90;96.30;;;;;;5014840;28;20281;-78
2021/11/24 14:58:52;;;;;;;4.63;4.10;;;3.90;96.30;;;;;;4999604;28;20188;-79
2021/11/24 15:01:19;;;;;;;3.33;3.00;;;3.90;96.30;;;;;;4996665;28;20191;-79
2021/11/24 15:03:45;;;;;;;3.83;3.50;;;3.80;96.30;;;;;;4996205;28;20249;-78
2021/11/24 15:06:10;;;;;;;6.40;4.00;;;3.80;96.30;;;;;;4996008;28;20563;-79
2021/11/24 15:08:36;;;;;;;3.90;3.60;;;3.80;96.30;;;;;;4997224;28;20622;-78
2021/11/24 15:11:02;;;;;;;5.00;4.50;;;3.80;96.30;;;;;;4997965;28;20233;-78
2021/11/24 15:13:28;;;;;;;13.53;4.37;;;3.70;96.30;;;;;;4997362;28;20420;-78
2021/11/24 15:16:03;;;;;;;7.07;6.10;;;3.70;96.30;;;;;;4995674;28;20567;-78
2021/11/24 15:18:29;;;;;;;16.27;12.70;;;3.60;96.30;;;;;;4995931;28;20174;-77
2021/11/24 15:20:56;;;;;;;7.87;6.90;;;3.60;96.30;;;;;;4996504;28;20486;-77
2021/11/24 15:23:22;;;;;;;7.20;5.93;;;3.60;96.30;;;;;;4996128;28;20173;-77
2021/11/24 15:25:48;;;;;;;8.20;7.33;;;3.60;96.30;;;;;;4996144;28;20580;-77
2021/11/24 15:28:20;;;;;;;8.20;7.40;;;3.60;96.30;;;;;;4994817;28;20177;-77
2021/11/24 15:30:46;;;;;;;9.73;8.80;;;3.60;96.30;;;;;;4995996;28;20433;-77
2021/11/24 15:33:11;;;;;;;7.60;6.90;;;3.60;96.30;;;;;;4995606;28;20412;-77
2021/11/24 15:35:39;;;;;;;5.50;4.90;;;3.50;96.30;;;;;;4994595;28;20487;-77
2021/11/24 15:38:04;;;;;;;8.13;5.80;;;3.40;96.30;;;;;;4997632;28;20246;-76
2021/11/24 15:40:30;;;;;;;13.60;5.70;;;3.40;96.30;;;;;;5013871;28;21129;-77
2021/11/24 15:43:00;;;;;;;7.00;5.73;;;3.40;96.30;;;;;;5015005;28;20161;-78
2021/11/24 15:45:25;;;;;;;16.53;7.13;;;3.40;96.30;;;;;;5012424;28;20226;-77
2021/11/24 15:47:51;;;;;;;8.67;6.90;;;3.30;96.30;;;;;;5006718;28;20428;-77
2021/11/24 15:50:16;;;;;;;5.50;4.70;;;3.30;96.30;;;;;;4995646;28;20182;-77
2021/11/24 15:52:42;;;;;;;3.10;2.80;;;3.30;96.30;;;;;;4995228;28;20272;-77
2021/11/24 15:55:08;;;;;;;7.37;5.80;;;3.30;96.30;;;;;;4994328;28;20812;-76
2021/11/24 15:57:33;;;;;;;7.20;4.80;;;3.30;96.30;;;;;;5030546;28;20169;-76
2021/11/24 15:59:59;;;;;;;8.47;4.40;;;3.30;96.30;;;;;;5015147;28;20982;-77
2021/11/24 16:02:25;;;;;;;7.10;5.60;;;3.30;96.30;;;;;;5014566;28;20192;-77
2021/11/24 16:04:51;;;;;;;6.23;4.40;;;3.30;96.30;;;;;;5010927;28;20180;-79
2021/11/24 16:07:17;;;;;;;6.27;4.70;;;3.30;96.30;;;;;;5014400;28;20924;-78
2021/11/24 16:09:42;;;;;;;7.03;4.57;;;3.30;96.30;;;;;;5014815;28;20458;-78
2021/11/24 16:12:08;;;;;;;5.33;4.03;;;3.30;96.30;;;;;;5010224;28;20962;-77
2021/11/24 16:14:36;;;;;;;49.07;30.10;;;3.30;96.30;;;;;;5028857;28;20180;-77
2021/11/24 16:17:02;;;;;;;91.63;45.67;;;3.20;96.30;;;;;;5014739;28;20659;-77
2021/11/24 16:19:28;;;;;;;23.27;15.60;;;3.20;96.30;;;;;;5014684;28;20408;-77
2021/11/24 16:21:54;;;;;;;10.10;7.30;;;3.20;96.30;;;;;;5014376;28;20197;-77
2021/11/24 16:24:20;;;;;;;8.93;6.43;;;3.20;96.30;;;;;;5029835;28;20485;-77
2021/11/24 16:26:45;;;;;;;11.53;5.93;;;3.20;96.30;;;;;;5013476;28;20169;-77
2021/11/24 16:29:11;;;;;;;11.00;7.77;;;3.20;96.30;;;;;;5014610;28;20652;-77
2021/11/24 16:31:37;;;;;;;10.00;7.03;;;3.20;96.30;;;;;;5012812;28;20284;-77
2021/11/24 16:34:02;;;;;;;9.27;6.53;;;3.20;96.30;;;;;;5014448;28;20180;-78
2021/11/24 16:36:29;;;;;;;7.20;6.03;;;3.20;96.30;;;;;;5014374;28;20338;-77
2021/11/24 16:38:56;;;;;;;9.33;8.40;;;3.20;96.30;;;;;;5014543;28;20243;-77
2021/11/24 16:41:22;;;;;;;11.20;7.00;;;3.30;96.30;;;;;;5012191;28;20436;-78
2021/11/24 16:43:48;;;;;;;12.63;9.40;;;3.30;96.30;;;;;;5014029;28;20408;-77
2021/11/24 16:46:14;;;;;;;12.40;8.03;;;3.30;96.30;;;;;;5014238;28;20418;-77
2021/11/24 16:48:39;;;;;;;6.33;5.70;;;3.20;96.30;;;;;;5006412;28;20181;-77
2021/11/24 16:51:05;;;;;;;7.03;5.40;;;3.20;96.30;;;;;;4994049;28;20533;-77
2021/11/24 16:53:30;;;;;;;5.53;4.50;;;3.10;96.30;;;;;;4994465;28;20174;-78
2021/11/24 16:55:56;;;;;;;5.57;5.07;;;3.00;96.30;;;;;;4993150;28;20206;-77
2021/11/24 16:58:22;;;;;;;16.73;5.63;;;3.10;96.30;;;;;;4993250;28;20220;-77
2021/11/24 17:00:48;;;;;;;9.40;5.20;;;3.10;96.30;;;;;;4994316;28;20186;-77
2021/11/24 17:03:14;;;;;;;6.57;4.90;;;3.10;96.30;;;;;;4992701;28;20421;-77
2021/11/24 17:05:40;;;;;;;12.27;6.00;;;3.00;96.30;;;;;;5001731;28;20427;-77
2021/11/24 17:08:06;;;;;;;12.90;7.87;;;3.00;96.30;;;;;;5013796;28;20569;-77
2021/11/24 17:10:32;;;;;;;12.10;7.60;;;3.00;96.30;;;;;;5029020;28;20506;-77
2021/11/24 17:12:59;;;;;;;12.57;7.73;;;2.90;96.30;;;;;;5013189;28;20503;-77